createdAt,value
2018-09-28T00:02:11.243Z,14.83
2018-09-28T00:04:39.704Z,14.47
2018-09-28T00:07:08.120Z,13.57
2018-09-28T00:09:36.726Z,14.33
2018-09-28T00:12:05.133Z,14.10
2018-09-28T00:14:33.536Z,13.60
2018-09-28T00:17:02.024Z,14.13
2018-09-28T00:19:30.509Z,14.23
2018-09-28T00:21:58.960Z,13.80
2018-09-28T00:24:27.421Z,14.40
2018-09-28T00:26:55.871Z,14.60
2018-09-28T00:29:24.307Z,14.40
2018-09-28T00:31:52.722Z,14.17
2018-09-28T00:34:21.170Z,14.97
2018-09-28T00:36:49.559Z,14.63
2018-09-28T00:39:18.006Z,14.13
2018-09-28T00:41:46.402Z,14.30
2018-09-28T00:44:14.838Z,13.53
2018-09-28T00:46:43.310Z,13.23
2018-09-28T00:49:11.709Z,14.23
2018-09-28T00:51:40.522Z,14.10
2018-09-28T00:54:08.915Z,14.60
2018-09-28T00:56:37.414Z,14.23
2018-09-28T00:59:05.912Z,14.17
2018-09-28T01:01:34.411Z,14.03
2018-09-28T01:04:02.877Z,14.27
2018-09-28T01:06:31.443Z,13.37
2018-09-28T01:09:00.333Z,15.17
2018-09-28T01:11:29.040Z,14.60
2018-09-28T01:13:57.473Z,14.37
2018-09-28T01:16:25.939Z,13.60
2018-09-28T01:18:54.356Z,14.47
2018-09-28T01:21:22.914Z,15.30
2018-09-28T01:23:51.380Z,14.27
2018-09-28T01:26:19.765Z,14.20
2018-09-28T01:28:48.196Z,15.20
2018-09-28T01:31:16.634Z,14.90
2018-09-28T01:33:45.137Z,14.07
2018-09-28T01:36:13.541Z,14.27
2018-09-28T01:38:41.973Z,14.90
2018-09-28T01:41:10.965Z,14.27
2018-09-28T01:43:39.398Z,15.17
2018-09-28T01:46:08.113Z,15.40
2018-09-28T01:48:36.566Z,15.80
2018-09-28T01:51:05.117Z,14.33
2018-09-28T01:53:33.608Z,15.00
2018-09-28T01:56:01.994Z,14.77
2018-09-28T01:58:30.442Z,14.47
2018-09-28T02:00:58.866Z,15.13
2018-09-28T02:03:27.255Z,14.30
2018-09-28T02:05:55.711Z,14.97
2018-09-28T02:08:24.214Z,14.53
2018-09-28T02:10:53.423Z,14.67
2018-09-28T02:13:21.842Z,14.63
2018-09-28T02:15:50.318Z,14.37
2018-09-28T02:18:18.661Z,15.20
2018-09-28T02:20:47.065Z,14.87
2018-09-28T02:23:16.192Z,15.50
2018-09-28T02:25:44.681Z,15.10
2018-09-28T02:28:13.135Z,15.07
2018-09-28T02:30:41.564Z,14.37
2018-09-28T02:33:09.951Z,14.30
2018-09-28T02:35:38.401Z,15.07
2018-09-28T02:38:06.803Z,14.60
2018-09-28T02:40:35.210Z,14.53
2018-09-28T02:43:03.801Z,14.60
2018-09-28T02:45:32.209Z,14.77
2018-09-28T02:48:00.731Z,14.83
2018-09-28T02:50:29.117Z,13.93
2018-09-28T02:52:58.051Z,14.00
2018-09-28T02:55:26.735Z,13.97
2018-09-28T02:57:55.128Z,14.23
2018-09-28T03:00:23.604Z,14.50
2018-09-28T03:02:52.027Z,14.37
2018-09-28T03:05:20.453Z,14.37
2018-09-28T03:07:48.868Z,13.80
2018-09-28T03:10:17.384Z,14.27
2018-09-28T03:12:45.817Z,14.90
2018-09-28T03:15:14.242Z,14.03
2018-09-28T03:17:42.708Z,14.70
2018-09-28T03:20:11.104Z,15.20
2018-09-28T03:22:39.614Z,15.20
2018-09-28T03:25:08.104Z,14.87
2018-09-28T03:27:36.526Z,14.97
2018-09-28T03:30:06.866Z,14.93
2018-09-28T03:32:35.287Z,15.63
2018-09-28T03:35:04.200Z,15.83
2018-09-28T03:37:32.650Z,15.33
2018-09-28T03:40:01.061Z,15.43
2018-09-28T03:42:29.510Z,15.10
2018-09-28T03:44:57.968Z,15.37
2018-09-28T03:47:26.798Z,14.60
2018-09-28T03:49:55.287Z,15.53
2018-09-28T03:52:23.758Z,14.63
2018-09-28T03:54:52.199Z,14.87
2018-09-28T03:57:20.585Z,15.90
2018-09-28T03:59:49.006Z,15.30
2018-09-28T04:02:17.442Z,15.07
2018-09-28T04:04:45.879Z,15.63
2018-09-28T04:07:14.391Z,13.97
2018-09-28T04:09:42.837Z,14.97
2018-09-28T04:12:11.364Z,12.10
2018-09-28T04:14:39.791Z,16.90
2018-09-28T04:17:08.280Z,16.47
2018-09-28T04:19:37.375Z,17.20
2018-09-28T04:22:05.909Z,17.93
2018-09-28T04:24:34.280Z,16.73
2018-09-28T04:27:02.688Z,18.40
2018-09-28T04:29:31.135Z,16.00
2018-09-28T04:31:59.626Z,16.13
2018-09-28T04:34:28.061Z,18.30
2018-09-28T04:36:56.533Z,19.43
2018-09-28T04:39:25.096Z,19.73
2018-09-28T04:41:53.573Z,19.30
2018-09-28T04:44:21.951Z,14.60
2018-09-28T04:46:51.037Z,16.57
2018-09-28T04:49:19.427Z,25.73
2018-09-28T04:51:47.921Z,23.90
2018-09-28T04:54:16.343Z,15.17
2018-09-28T04:56:44.826Z,23.10
2018-09-28T04:59:13.337Z,22.50
2018-09-28T05:01:41.761Z,24.40
2018-09-28T05:04:10.181Z,14.10
2018-09-28T05:06:38.614Z,12.97
2018-09-28T05:09:11.885Z,12.70
2018-09-28T05:11:40.474Z,14.60
2018-09-28T05:14:09.128Z,17.43
2018-09-28T05:16:37.771Z,12.00
2018-09-28T05:19:06.234Z,10.17
2018-09-28T05:21:34.657Z,19.37
2018-09-28T05:24:03.183Z,16.23
2018-09-28T05:26:31.597Z,21.30
2018-09-28T05:28:59.995Z,17.30
2018-09-28T05:31:28.571Z,7.00
2018-09-28T05:33:56.925Z,16.83
2018-09-28T05:36:25.366Z,12.90
2018-09-28T05:38:53.838Z,13.60
2018-09-28T05:41:22.319Z,18.47
2018-09-28T05:43:50.824Z,13.70
2018-09-28T05:46:19.294Z,15.47
2018-09-28T05:48:47.730Z,14.40
2018-09-28T05:51:17.094Z,14.87
2018-09-28T05:53:45.485Z,16.90
2018-09-28T05:56:13.870Z,10.17
2018-09-28T05:58:49.130Z,15.03
2018-09-28T06:01:23.039Z,12.20
2018-09-28T06:03:56.848Z,9.83
2018-09-28T06:06:25.301Z,10.40
2018-09-28T06:08:53.876Z,11.67
2018-09-28T06:11:22.316Z,10.67
2018-09-28T06:13:50.723Z,13.30
2018-09-28T06:16:19.223Z,11.90
2018-09-28T06:18:47.693Z,11.37
2018-09-28T06:21:16.157Z,7.00
2018-09-28T06:23:44.547Z,10.90
2018-09-28T06:26:13.025Z,8.10
2018-09-28T06:28:41.508Z,9.17
2018-09-28T06:31:10.041Z,5.20
2018-09-28T06:33:38.486Z,6.40
2018-09-28T06:36:07.011Z,7.80
2018-09-28T06:38:35.440Z,6.00
2018-09-28T06:41:03.925Z,7.13
2018-09-28T06:43:32.389Z,5.07
2018-09-28T06:46:00.875Z,5.23
2018-09-28T06:48:29.351Z,6.47
2018-09-28T06:50:57.881Z,6.30
2018-09-28T06:53:27.182Z,4.40
2018-09-28T06:55:55.580Z,4.60
2018-09-28T06:58:24.019Z,5.67
2018-09-28T07:00:52.597Z,5.37
2018-09-28T07:03:21.012Z,5.00
2018-09-28T07:05:49.431Z,4.20
2018-09-28T07:08:17.989Z,4.33
2018-09-28T07:10:46.470Z,3.83
2018-09-28T07:13:14.899Z,4.20
2018-09-28T07:15:43.336Z,3.73
2018-09-28T07:18:11.837Z,3.00
2018-09-28T07:20:40.286Z,2.43
2018-09-28T07:23:08.727Z,2.97
2018-09-28T07:25:37.382Z,2.40
2018-09-28T07:28:05.986Z,2.40
2018-09-28T07:30:34.395Z,2.10
2018-09-28T07:33:02.799Z,2.20
2018-09-28T07:35:31.242Z,2.10
2018-09-28T07:37:59.710Z,2.20
2018-09-28T07:40:28.145Z,2.10
2018-09-28T07:42:56.591Z,2.47
2018-09-28T07:45:25.086Z,2.33
2018-09-28T07:47:53.619Z,2.57
2018-09-28T07:50:22.086Z,2.23
2018-09-28T07:52:50.650Z,1.70
2018-09-28T07:55:19.058Z,2.20
2018-09-28T07:57:47.457Z,2.17
2018-09-28T08:00:15.922Z,2.40
2018-09-28T08:02:44.402Z,2.60
2018-09-28T08:05:12.884Z,2.00
2018-09-28T08:07:41.327Z,2.70
2018-09-28T08:10:09.720Z,2.10
2018-09-28T08:12:38.165Z,3.03
2018-09-28T08:15:06.574Z,2.43
2018-09-28T08:17:34.955Z,3.20
2018-09-28T08:20:03.445Z,2.30
2018-09-28T08:22:31.944Z,3.03
2018-09-28T08:25:00.995Z,2.67
2018-09-28T08:27:29.569Z,2.20
2018-09-28T08:29:57.946Z,2.40
2018-09-28T08:32:26.433Z,2.57
2018-09-28T08:34:55.154Z,2.77
2018-09-28T08:37:23.751Z,2.23
2018-09-28T08:39:52.230Z,3.33
2018-09-28T08:42:20.696Z,2.37
2018-09-28T08:44:49.205Z,1.73
2018-09-28T08:47:17.765Z,2.03
2018-09-28T08:49:46.195Z,2.03
2018-09-28T08:52:14.646Z,1.80
2018-09-28T08:54:43.051Z,2.47
2018-09-28T08:57:11.514Z,2.57
2018-09-28T08:59:40.051Z,2.20
2018-09-28T09:02:08.537Z,2.50
2018-09-28T09:04:36.871Z,2.43
2018-09-28T09:07:05.343Z,2.20
2018-09-28T09:09:33.781Z,3.33
2018-09-28T09:12:02.248Z,2.90
2018-09-28T09:14:30.783Z,2.40
2018-09-28T09:16:59.195Z,2.03
2018-09-28T09:19:27.698Z,3.77
2018-09-28T09:21:56.158Z,3.60
2018-09-28T09:24:24.570Z,3.53
2018-09-28T09:26:52.957Z,2.67
2018-09-28T09:29:21.333Z,2.90
2018-09-28T09:31:49.725Z,3.60
2018-09-28T09:34:18.120Z,3.50
2018-09-28T09:36:46.551Z,2.70
2018-09-28T09:39:15.066Z,2.30
2018-09-28T09:41:43.538Z,3.03
2018-09-28T09:44:12.039Z,2.97
2018-09-28T09:46:40.512Z,2.43
2018-09-28T09:49:08.977Z,3.47
2018-09-28T09:51:37.760Z,2.47
2018-09-28T09:54:06.216Z,2.53
2018-09-28T09:56:35.607Z,2.80
2018-09-28T09:59:04.047Z,2.87
2018-09-28T10:01:37.929Z,3.33
2018-09-28T10:04:09.546Z,1.80
2018-09-28T10:06:38.008Z,2.53
2018-09-28T10:09:12.269Z,2.73
2018-09-28T10:11:40.677Z,2.30
2018-09-28T10:14:09.170Z,3.37
2018-09-28T10:16:38.046Z,3.03
2018-09-28T10:19:07.230Z,2.90
2018-09-28T10:21:35.682Z,3.10
2018-09-28T10:24:04.099Z,2.07
2018-09-28T10:26:32.680Z,3.03
2018-09-28T10:29:01.126Z,2.67
2018-09-28T10:31:30.476Z,3.20
2018-09-28T10:33:58.901Z,2.13
2018-09-28T10:36:27.299Z,2.13
2018-09-28T10:38:55.791Z,2.57
2018-09-28T10:41:24.253Z,2.80
2018-09-28T10:43:52.698Z,2.90
2018-09-28T10:46:21.138Z,2.70
2018-09-28T10:48:49.577Z,2.67
2018-09-28T10:51:18.208Z,2.63
2018-09-28T10:53:46.676Z,3.13
2018-09-28T10:56:15.127Z,3.07
2018-09-28T10:58:43.615Z,2.23
2018-09-28T11:01:12.049Z,2.13
2018-09-28T11:03:40.476Z,3.00
2018-09-28T11:06:09.003Z,2.60
2018-09-28T11:08:37.463Z,2.87
2018-09-28T11:11:05.880Z,3.20
2018-09-28T11:13:34.334Z,2.87
2018-09-28T11:16:02.786Z,2.97
2018-09-28T11:18:31.259Z,2.80
2018-09-28T11:20:59.709Z,2.80
2018-09-28T11:23:28.125Z,2.10
2018-09-28T11:25:56.573Z,2.70
2018-09-28T11:28:24.986Z,3.03
2018-09-28T11:30:53.397Z,2.60
2018-09-28T11:33:21.858Z,2.27
2018-09-28T11:35:50.299Z,3.20
2018-09-28T11:38:18.950Z,2.23
2018-09-28T11:40:47.389Z,2.90
2018-09-28T11:43:15.863Z,2.47
2018-09-28T11:45:45.241Z,2.47
2018-09-28T11:48:13.644Z,2.30
2018-09-28T11:50:42.050Z,2.90
2018-09-28T11:53:10.567Z,2.27
2018-09-28T11:55:39.112Z,2.70
2018-09-28T11:58:07.526Z,2.07
2018-09-28T12:00:36.029Z,2.33
2018-09-28T12:03:04.544Z,1.80
2018-09-28T12:05:33.063Z,1.60
2018-09-28T12:08:01.542Z,2.33
2018-09-28T12:10:30.022Z,1.90
2018-09-28T12:12:58.402Z,2.37
2018-09-28T12:15:26.950Z,2.23
2018-09-28T12:17:55.340Z,2.03
2018-09-28T12:20:23.787Z,1.50
2018-09-28T12:22:52.260Z,2.07
2018-09-28T12:25:20.793Z,2.13
2018-09-28T12:27:49.280Z,2.50
2018-09-28T12:30:17.669Z,2.20
2018-09-28T12:32:46.140Z,2.10
2018-09-28T12:35:14.579Z,1.97
2018-09-28T12:37:42.987Z,1.90
2018-09-28T12:40:11.428Z,2.17
2018-09-28T12:42:39.885Z,2.30
2018-09-28T12:45:08.152Z,1.63
2018-09-28T12:47:36.699Z,2.47
2018-09-28T12:50:05.301Z,2.37
2018-09-28T12:52:34.337Z,1.50
2018-09-28T12:55:03.538Z,1.97
2018-09-28T12:57:32.157Z,2.00
2018-09-28T13:00:00.614Z,2.20
2018-09-28T13:02:29.133Z,2.10
2018-09-28T13:04:57.498Z,2.13
2018-09-28T13:07:25.925Z,2.13
2018-09-28T13:09:54.387Z,2.47
2018-09-28T13:12:22.881Z,2.57
2018-09-28T13:14:51.342Z,2.33
2018-09-28T13:17:19.781Z,2.70
2018-09-28T13:19:48.182Z,2.60
2018-09-28T13:22:16.625Z,2.27
2018-09-28T13:24:45.087Z,1.97
2018-09-28T13:27:13.506Z,2.03
2018-09-28T13:29:42.466Z,2.47
2018-09-28T13:32:10.942Z,2.43
2018-09-28T13:34:39.495Z,2.60
2018-09-28T13:37:08.051Z,2.60
2018-09-28T13:39:36.481Z,2.90
2018-09-28T13:42:05.002Z,2.23
2018-09-28T13:44:33.456Z,1.97
2018-09-28T13:47:01.882Z,2.03
2018-09-28T13:49:30.389Z,2.37
2018-09-28T13:51:58.989Z,2.03
2018-09-28T13:54:27.759Z,2.30
2018-09-28T13:56:56.051Z,2.43
2018-09-28T13:59:24.513Z,2.00
2018-09-28T14:01:52.937Z,2.40
2018-09-28T14:04:21.450Z,2.40
2018-09-28T14:06:50.086Z,2.47
2018-09-28T14:09:18.970Z,2.10
2018-09-28T14:11:47.405Z,1.90
2018-09-28T14:14:15.892Z,2.10
2018-09-28T14:16:44.370Z,2.00
2018-09-28T14:19:12.855Z,2.00
2018-09-28T14:21:41.397Z,2.13
2018-09-28T14:24:10.053Z,2.50
2018-09-28T14:26:38.595Z,2.10
2018-09-28T14:29:07.085Z,1.77
2018-09-28T14:31:35.534Z,1.90
2018-09-28T14:34:03.987Z,1.73
2018-09-28T14:36:32.492Z,1.40
2018-09-28T14:39:00.951Z,1.90
2018-09-28T14:41:29.435Z,1.83
2018-09-28T14:43:57.833Z,2.23
2018-09-28T14:46:26.403Z,2.10
2018-09-28T14:48:55.885Z,1.90
2018-09-28T14:51:25.025Z,2.10
2018-09-28T14:53:54.205Z,1.87
2018-09-28T14:56:22.809Z,2.00
2018-09-28T14:58:51.255Z,2.00
2018-09-28T15:01:19.710Z,1.90
2018-09-28T15:03:48.189Z,2.20
2018-09-28T15:06:16.709Z,1.57
2018-09-28T15:08:45.119Z,1.93
2018-09-28T15:11:13.593Z,2.20
2018-09-28T15:13:42.088Z,1.07
2018-09-28T15:16:10.483Z,1.73
2018-09-28T15:18:39.049Z,1.67
2018-09-28T15:21:07.537Z,1.60
2018-09-28T15:23:35.987Z,1.60
2018-09-28T15:26:04.395Z,1.43
2018-09-28T15:28:32.802Z,1.73
2018-09-28T15:31:01.275Z,1.87
2018-09-28T15:33:29.691Z,1.30
2018-09-28T15:35:59.029Z,1.67
2018-09-28T15:38:27.613Z,1.60
2018-09-28T15:40:56.113Z,1.80
2018-09-28T15:43:24.607Z,2.00
2018-09-28T15:45:53.257Z,2.00
2018-09-28T15:48:23.902Z,1.97
2018-09-28T15:50:53.195Z,1.53
2018-09-28T15:53:21.704Z,1.90
2018-09-28T15:55:50.385Z,1.63
2018-09-28T15:58:19.363Z,1.73
2018-09-28T16:00:47.817Z,1.57
2018-09-28T16:03:16.244Z,1.77
2018-09-28T16:05:44.713Z,2.07
2018-09-28T16:08:13.227Z,1.40
2018-09-28T16:10:41.626Z,1.50
2018-09-28T16:13:10.095Z,1.90
2018-09-28T16:15:38.517Z,1.80
2018-09-28T16:18:06.947Z,2.03
2018-09-28T16:20:35.399Z,1.40
2018-09-28T16:23:03.880Z,2.00
2018-09-28T16:25:32.286Z,1.60
2018-09-28T16:28:00.699Z,2.10
2018-09-28T16:30:29.222Z,2.20
2018-09-28T16:32:57.665Z,1.80
2018-09-28T16:35:26.071Z,1.40
2018-09-28T16:37:54.577Z,2.13
2018-09-28T16:40:23.071Z,2.20
2018-09-28T16:42:51.448Z,2.90
2018-09-28T16:45:19.899Z,2.27
2018-09-28T16:47:48.298Z,1.90
2018-09-28T16:50:16.813Z,2.10
2018-09-28T16:52:45.354Z,3.00
2018-09-28T16:55:13.895Z,2.30
2018-09-28T16:57:42.463Z,2.07
2018-09-28T17:00:10.904Z,2.30
2018-09-28T17:02:39.322Z,2.00
2018-09-28T17:05:07.794Z,2.00
2018-09-28T17:07:37.530Z,1.77
2018-09-28T17:10:06.022Z,2.27
2018-09-28T17:12:35.890Z,1.93
2018-09-28T17:15:05.366Z,1.80
2018-09-28T17:17:36.671Z,2.00
2018-09-28T17:20:05.184Z,2.27
2018-09-28T17:22:33.723Z,2.37
2018-09-28T17:25:02.094Z,2.10
2018-09-28T17:27:30.577Z,2.10
2018-09-28T17:29:59.207Z,2.03
2018-09-28T17:32:27.698Z,2.43
2018-09-28T17:34:56.204Z,2.20
2018-09-28T17:37:24.683Z,2.33
2018-09-28T17:39:53.111Z,2.27
2018-09-28T17:42:21.555Z,2.50
2018-09-28T17:44:50.083Z,2.30
2018-09-28T17:47:18.503Z,2.20
2018-09-28T17:49:46.992Z,2.53
2018-09-28T17:52:15.498Z,2.23
2018-09-28T17:54:43.897Z,2.30
2018-09-28T17:57:12.811Z,2.63
2018-09-28T17:59:41.323Z,2.30
2018-09-28T18:02:09.805Z,2.40
2018-09-28T18:04:38.195Z,2.20
2018-09-28T18:07:06.752Z,2.23
2018-09-28T18:09:35.159Z,2.23
2018-09-28T18:12:03.612Z,2.50
2018-09-28T18:14:32.156Z,2.07
2018-09-28T18:17:00.765Z,2.50
2018-09-28T18:19:29.222Z,2.63
2018-09-28T18:21:57.644Z,2.30
2018-09-28T18:24:26.102Z,2.47
2018-09-28T18:26:54.614Z,2.50
2018-09-28T18:29:23.058Z,1.73
2018-09-28T18:31:51.678Z,2.23
2018-09-28T18:34:20.180Z,2.00
2018-09-28T18:36:48.865Z,2.27
2018-09-28T18:39:17.581Z,2.30
2018-09-28T18:41:46.030Z,2.30
2018-09-28T18:44:14.474Z,2.20
2018-09-28T18:46:42.979Z,1.77
2018-09-28T18:49:12.217Z,2.57
2018-09-28T18:51:40.832Z,2.20
2018-09-28T18:54:09.763Z,2.40
2018-09-28T18:56:38.209Z,2.40
2018-09-28T18:59:08.608Z,2.43
2018-09-28T19:01:37.121Z,2.10
2018-09-28T19:04:05.688Z,2.37
2018-09-28T19:06:34.242Z,2.43
2018-09-28T19:09:02.728Z,1.90
2018-09-28T19:11:31.160Z,2.50
2018-09-28T19:13:59.605Z,1.93
2018-09-28T19:16:28.060Z,2.50
2018-09-28T19:18:56.523Z,2.30
2018-09-28T19:21:25.021Z,2.23
2018-09-28T19:23:53.435Z,2.50
2018-09-28T19:26:21.928Z,2.70
2018-09-28T19:28:51.345Z,2.37
2018-09-28T19:31:19.771Z,2.60
2018-09-28T19:33:49.101Z,2.40
2018-09-28T19:36:18.761Z,3.23
2018-09-28T19:38:47.298Z,2.20
2018-09-28T19:41:17.287Z,2.40
2018-09-28T19:43:45.709Z,2.70
2018-09-28T19:46:14.201Z,2.60
2018-09-28T19:48:42.750Z,2.67
2018-09-28T19:51:11.177Z,2.10
2018-09-28T19:53:39.717Z,2.40
2018-09-28T19:56:08.230Z,2.07
2018-09-28T19:58:36.850Z,1.70
2018-09-28T20:01:05.350Z,1.57
2018-09-28T20:03:33.794Z,2.40
2018-09-28T20:06:02.259Z,2.27
2018-09-28T20:08:30.790Z,2.43
2018-09-28T20:10:59.507Z,2.13
2018-09-28T20:13:27.999Z,2.23
2018-09-28T20:15:56.545Z,2.30
2018-09-28T20:18:25.073Z,2.27
2018-09-28T20:20:53.581Z,2.70
2018-09-28T20:23:22.179Z,2.10
2018-09-28T20:25:51.194Z,2.10
2018-09-28T20:28:22.245Z,2.20
2018-09-28T20:30:51.144Z,2.70
2018-09-28T20:33:19.756Z,2.30
2018-09-28T20:35:48.207Z,2.10
2018-09-28T20:38:16.943Z,2.13
2018-09-28T20:40:45.402Z,1.80
2018-09-28T20:43:13.847Z,2.17
2018-09-28T20:45:42.261Z,2.27
2018-09-28T20:48:11.311Z,2.50
2018-09-28T20:50:39.765Z,2.30
2018-09-28T20:53:08.321Z,1.93
2018-09-28T20:55:36.843Z,2.00
2018-09-28T20:58:05.480Z,2.73
2018-09-28T21:00:34.030Z,2.00
2018-09-28T21:03:03.127Z,2.30
2018-09-28T21:05:31.698Z,2.43
2018-09-28T21:08:00.137Z,2.60
2018-09-28T21:10:28.577Z,2.53
2018-09-28T21:12:56.960Z,2.60
2018-09-28T21:15:25.413Z,2.23
2018-09-28T21:17:54.001Z,2.60
2018-09-28T21:20:22.570Z,2.27
2018-09-28T21:22:51.271Z,2.40
2018-09-28T21:25:19.743Z,2.53
2018-09-28T21:27:48.240Z,2.30
2018-09-28T21:30:16.730Z,2.70
2018-09-28T21:32:45.191Z,2.67
2018-09-28T21:35:13.611Z,2.53
2018-09-28T21:37:42.061Z,2.47
2018-09-28T21:40:10.511Z,2.90
2018-09-28T21:42:39.258Z,2.30
2018-09-28T21:45:08.302Z,2.43
2018-09-28T21:47:36.725Z,2.60
2018-09-28T21:50:05.162Z,2.30
2018-09-28T21:52:33.581Z,2.90
2018-09-28T21:55:01.987Z,2.47
2018-09-28T21:57:30.410Z,2.60
2018-09-28T21:59:58.837Z,2.80
2018-09-28T22:02:27.251Z,2.70
2018-09-28T22:04:55.672Z,2.30
2018-09-28T22:07:24.777Z,2.73
2018-09-28T22:09:53.212Z,2.13
2018-09-28T22:12:21.695Z,2.80
2018-09-28T22:14:50.095Z,2.50
2018-09-28T22:17:18.489Z,2.83
2018-09-28T22:19:46.923Z,2.53
2018-09-28T22:22:15.351Z,2.50
2018-09-28T22:24:43.810Z,3.00
2018-09-28T22:27:12.237Z,2.37
2018-09-28T22:29:40.737Z,2.83
2018-09-28T22:32:09.200Z,2.60
2018-09-28T22:34:37.673Z,2.33
2018-09-28T22:37:06.062Z,2.83
2018-09-28T22:39:34.501Z,2.70
2018-09-28T22:42:02.962Z,2.83
2018-09-28T22:44:31.388Z,2.70
2018-09-28T22:46:59.761Z,3.30
2018-09-28T22:49:29.007Z,3.27
2018-09-28T22:51:57.426Z,3.07
2018-09-28T22:54:25.857Z,2.90
2018-09-28T22:56:54.254Z,2.97
2018-09-28T22:59:22.724Z,3.20
2018-09-28T23:01:51.161Z,2.83
2018-09-28T23:04:19.606Z,2.63
2018-09-28T23:06:47.991Z,2.60
2018-09-28T23:09:16.470Z,2.70
2018-09-28T23:11:44.956Z,2.90
2018-09-28T23:14:13.346Z,2.90
2018-09-28T23:16:41.712Z,3.10
2018-09-28T23:19:10.129Z,2.90
2018-09-28T23:21:38.621Z,2.67
2018-09-28T23:24:07.174Z,2.93
2018-09-28T23:26:35.633Z,3.03
2018-09-28T23:29:04.115Z,3.27
2018-09-28T23:31:32.505Z,2.90
2018-09-28T23:34:01.067Z,2.90
2018-09-28T23:36:29.503Z,3.00
2018-09-28T23:38:57.945Z,2.97
2018-09-28T23:41:26.346Z,3.10
2018-09-28T23:43:54.714Z,3.00
2018-09-28T23:46:23.178Z,3.00
2018-09-28T23:48:51.602Z,3.00
2018-09-28T23:51:19.975Z,3.00
2018-09-28T23:53:48.557Z,3.00
2018-09-28T23:56:17.029Z,3.27
2018-09-28T23:58:45.428Z,3.23
